Weather at Campo di Volo "Beppe Rascaglia"

Public forecast

Using degrees Celsius for public forecast. Weather courtesy of forecast.io.

Closest aviation weather report (METAR) to Campo di Volo "Beppe Rascaglia"

Closest report is Lamezia Terme Airport, 27.3 nm (50.6 km) NNE. Retrieved 2020/11/24 17:20 UTC (3 minutes ago):

LICA 241720Z AUTO 02008KT 9999 BKN074 BKN160 15/11 Q1021

Closest aviation forecast (TAF) to Campo di Volo "Beppe Rascaglia"

Closest forecast is Lamezia Terme Airport, 27.3 nm (50.6 km) NNE. Retrieved 2020/11/24 12:22 UTC (5 hours ago):

TAF LICA 241100Z 2412/2512 07007KT 9999 SCT040